Time;durP1;ratioP1;P1;durP2;ratioP2;P2;SDS_P1;SDS_P2;PMS_P1;PMS_P2;Temp;Humidity;BMP_temperature;BMP_pressure;BME280_temperature;BME280_humidity;BME280_pressure;Samples;Min_cycle;Max_cycle;Signal;HPM_P1;HPM_P2
2023/05/30 00:01:13;;;;;;;0.20;0.20;;;;;;;;;;5120502;27;20078;-47
2023/05/30 00:03:39;;;;;;;0.20;0.20;;;;;;;;;;5097435;28;20061;-47
2023/05/30 00:06:05;;;;;;;0.20;0.20;;;;;;;;;;5115651;28;20439;-49
2023/05/30 00:08:31;;;;;;;0.20;0.20;;;;;;;;;;5115148;27;20082;-47
2023/05/30 00:10:56;;;;;;;0.17;0.17;;;;;;;;;;5115371;27;20130;-48
2023/05/30 00:13:22;;;;;;;0.25;0.25;;;;;;;;;;5097001;28;20270;-48
2023/05/30 00:15:48;;;;;;;0.20;0.20;;;;;;;;;;5115612;28;20086;-47
2023/05/30 00:18:14;;;;;;;0.20;0.20;;;;;;;;;;5115766;28;20453;-47
2023/05/30 00:20:40;;;;;;;0.20;0.20;;;;;;;;;;5115263;27;20051;-47
2023/05/30 00:23:05;;;;;;;0.20;0.20;;;;;;;;;;5115719;28;20043;-48
2023/05/30 00:25:32;;;;;;;0.20;0.20;;;;;;;;;;5115719;28;20047;-47
2023/05/30 00:27:58;;;;;;;0.20;0.20;;;;;;;;;;5115064;27;20067;-47
2023/05/30 00:30:25;;;;;;;0.20;0.20;;;;;;;;;;5123617;27;20054;-47
2023/05/30 00:32:50;;;;;;;0.20;0.20;;;;;;;;;;5100683;28;20435;-47
2023/05/30 00:35:16;;;;;;;0.20;0.20;;;;;;;;;;5118825;28;20545;-48
2023/05/30 00:37:42;;;;;;;0.20;0.20;;;;;;;;;;5118415;28;20043;-47
2023/05/30 00:40:08;;;;;;;0.20;0.20;;;;;;;;;;5118240;27;20078;-49
2023/05/30 00:42:33;;;;;;;0.20;0.20;;;;;;;;;;5099958;28;20047;-48
2023/05/30 00:44:59;;;;;;;0.20;0.20;;;;;;;;;;5118127;28;20058;-47
2023/05/30 00:47:25;;;;;;;0.20;0.20;;;;;;;;;;5118301;28;20043;-47
2023/05/30 00:49:52;;;;;;;0.20;0.20;;;;;;;;;;5125347;27;20170;-47
2023/05/30 00:52:17;;;;;;;0.20;0.20;;;;;;;;;;5139206;27;20046;-48
2023/05/30 00:54:44;;;;;;;0.20;0.20;;;;;;;;;;5138918;27;20104;-47
2023/05/30 00:57:10;;;;;;;0.20;0.20;;;;;;;;;;5119844;27;20046;-48
2023/05/30 00:59:36;;;;;;;0.20;0.20;;;;;;;;;;5120154;27;20059;-48
2023/05/30 01:02:02;;;;;;;0.20;0.20;;;;;;;;;;5138457;27;20583;-47
2023/05/30 01:04:28;;;;;;;0.20;0.20;;;;;;;;;;5138761;27;20077;-47
2023/05/30 01:06:53;;;;;;;0.20;0.20;;;;;;;;;;5138272;27;20525;-47
2023/05/30 01:09:19;;;;;;;0.20;0.20;;;;;;;;;;5129391;27;20044;-47
2023/05/30 01:12:06;;;;;;;0.20;0.20;;;;;;;;;;5117274;27;20306;-46
2023/05/30 01:14:51;;;;;;;0.20;0.20;;;;;;;;;;5102788;28;20058;-47
2023/05/30 01:17:38;;;;;;;0.20;0.20;;;;;;;;;;5094655;27;20523;-47
2023/05/30 01:20:10;;;;;;;0.20;0.20;;;;;;;;;;5077375;27;20043;-48
2023/05/30 01:22:39;;;;;;;0.20;0.20;;;;;;;;;;5090328;27;20090;-47
2023/05/30 01:25:25;;;;;;;0.20;0.20;;;;;;;;;;5121631;27;20066;-49
2023/05/30 01:27:57;;;;;;;0.20;0.20;;;;;;;;;;5106066;27;20513;-47
2023/05/30 01:30:24;;;;;;;0.20;0.20;;;;;;;;;;5116951;27;23392;-47
2023/05/30 01:32:50;;;;;;;0.20;0.20;;;;;;;;;;5134900;27;20075;-48
2023/05/30 01:35:21;;;;;;;0.20;0.20;;;;;;;;;;5138561;27;20054;-47
2023/05/30 01:37:47;;;;;;;0.20;0.20;;;;;;;;;;5134090;27;20486;-47
2023/05/30 01:40:13;;;;;;;0.20;0.20;;;;;;;;;;5137631;27;20043;-47
2023/05/30 01:42:39;;;;;;;0.20;0.20;;;;;;;;;;5117923;27;20305;-47
2023/05/30 01:45:08;;;;;;;0.20;0.20;;;;;;;;;;5138071;27;20185;-47
2023/05/30 01:47:38;;;;;;;0.20;0.20;;;;;;;;;;5138320;27;20043;-47
2023/05/30 01:50:10;;;;;;;0.20;0.20;;;;;;;;;;5131330;27;20057;-47
2023/05/30 01:52:39;;;;;;;0.20;0.20;;;;;;;;;;5119091;27;20071;-48
2023/05/30 01:55:06;;;;;;;0.20;0.20;;;;;;;;;;5117791;27;20077;-47
2023/05/30 01:57:32;;;;;;;0.20;0.20;;;;;;;;;;5099730;28;20058;-48
2023/05/30 01:59:59;;;;;;;0.20;0.20;;;;;;;;;;5117578;27;20410;-47
2023/05/30 02:02:24;;;;;;;0.20;0.20;;;;;;;;;;5117714;28;20043;-47
2023/05/30 02:04:50;;;;;;;0.20;0.20;;;;;;;;;;5099029;28;20174;-48
2023/05/30 02:07:15;;;;;;;0.20;0.20;;;;;;;;;;5099174;28;20879;-47
2023/05/30 02:09:41;;;;;;;0.10;0.10;;;;;;;;;;5117321;27;20054;-47
2023/05/30 02:12:07;;;;;;;0.15;0.15;;;;;;;;;;5098673;28;20046;-47
2023/05/30 02:14:33;;;;;;;0.20;0.20;;;;;;;;;;5117619;28;20138;-48
2023/05/30 02:16:59;;;;;;;0.20;0.20;;;;;;;;;;5118124;28;20279;-48
2023/05/30 02:19:25;;;;;;;0.20;0.20;;;;;;;;;;5117563;27;20047;-47
2023/05/30 02:21:51;;;;;;;0.20;0.20;;;;;;;;;;5116770;27;20047;-47
2023/05/30 02:24:16;;;;;;;0.20;0.20;;;;;;;;;;5117317;28;20402;-47
2023/05/30 02:26:42;;;;;;;0.20;0.20;;;;;;;;;;5117329;28;20485;-47
2023/05/30 02:29:07;;;;;;;0.20;0.20;;;;;;;;;;5117672;28;20459;-48
2023/05/30 02:31:33;;;;;;;0.20;0.20;;;;;;;;;;5120458;27;20042;-48
2023/05/30 02:33:58;;;;;;;0.20;0.20;;;;;;;;;;5136608;27;20418;-48
2023/05/30 02:36:24;;;;;;;0.20;0.20;;;;;;;;;;5137840;27;20147;-47
2023/05/30 02:38:49;;;;;;;0.13;0.13;;;;;;;;;;5137701;27;20873;-48
2023/05/30 02:41:15;;;;;;;0.20;0.20;;;;;;;;;;5121266;27;20043;-48
2023/05/30 02:43:41;;;;;;;0.20;0.20;;;;;;;;;;5116600;28;20070;-47
2023/05/30 02:46:06;;;;;;;0.20;0.20;;;;;;;;;;5116943;28;20146;-48
2023/05/30 02:48:32;;;;;;;0.20;0.20;;;;;;;;;;5081928;28;20072;-47
2023/05/30 02:50:57;;;;;;;0.20;0.20;;;;;;;;;;5116430;27;20142;-47
2023/05/30 02:53:23;;;;;;;0.20;0.20;;;;;;;;;;5118279;27;20478;-47
2023/05/30 02:55:50;;;;;;;0.20;0.20;;;;;;;;;;5137015;27;20054;-49
2023/05/30 02:58:15;;;;;;;0.20;0.20;;;;;;;;;;5137871;27;20204;-47
2023/05/30 03:00:41;;;;;;;0.20;0.20;;;;;;;;;;5125823;27;20551;-48
2023/05/30 03:03:08;;;;;;;0.20;0.20;;;;;;;;;;5116829;28;20205;-47
2023/05/30 03:05:35;;;;;;;0.20;0.20;;;;;;;;;;5098506;28;20039;-47
2023/05/30 03:08:01;;;;;;;0.20;0.20;;;;;;;;;;5116200;28;20104;-47
2023/05/30 03:10:29;;;;;;;0.20;0.20;;;;;;;;;;5116683;27;20251;-47
2023/05/30 03:12:55;;;;;;;0.20;0.20;;;;;;;;;;5131877;27;20399;-48
2023/05/30 03:15:21;;;;;;;0.20;0.20;;;;;;;;;;5136709;27;20728;-48
2023/05/30 03:17:47;;;;;;;0.20;0.20;;;;;;;;;;5136689;27;20055;-47
2023/05/30 03:20:12;;;;;;;0.20;0.20;;;;;;;;;;5129215;27;20051;-47
2023/05/30 03:22:38;;;;;;;0.20;0.20;;;;;;;;;;5115359;28;20442;-47
2023/05/30 03:25:05;;;;;;;0.20;0.20;;;;;;;;;;5097136;28;20761;-47
2023/05/30 03:27:30;;;;;;;0.20;0.20;;;;;;;;;;5096653;28;20406;-47
2023/05/30 03:29:56;;;;;;;0.20;0.20;;;;;;;;;;5096665;28;20051;-48
2023/05/30 03:32:21;;;;;;;0.20;0.20;;;;;;;;;;5115113;28;20146;-47
2023/05/30 03:34:47;;;;;;;0.20;0.20;;;;;;;;;;5115309;27;20055;-47
2023/05/30 03:37:13;;;;;;;0.20;0.20;;;;;;;;;;5114685;28;20067;-48
2023/05/30 03:39:38;;;;;;;0.20;0.20;;;;;;;;;;5117241;27;20088;-47
2023/05/30 03:42:04;;;;;;;0.20;0.20;;;;;;;;;;5135849;27;20047;-48
2023/05/30 03:44:30;;;;;;;0.20;0.20;;;;;;;;;;5135699;27;20046;-47
2023/05/30 03:46:56;;;;;;;0.20;0.20;;;;;;;;;;5135593;27;20157;-47
2023/05/30 03:49:21;;;;;;;0.20;0.20;;;;;;;;;;5135881;27;20043;-47
2023/05/30 03:51:47;;;;;;;0.20;0.20;;;;;;;;;;5115051;27;20054;-48
2023/05/30 03:54:12;;;;;;;0.20;0.20;;;;;;;;;;5115315;27;20051;-49
2023/05/30 03:56:38;;;;;;;0.20;0.20;;;;;;;;;;5135344;27;20081;-47
2023/05/30 03:59:03;;;;;;;0.20;0.20;;;;;;;;;;5135607;27;20042;-47
2023/05/30 04:01:30;;;;;;;0.10;0.10;;;;;;;;;;5117485;27;20146;-47
2023/05/30 04:03:56;;;;;;;0.20;0.20;;;;;;;;;;5115306;28;20047;-47
2023/05/30 04:06:24;;;;;;;0.20;0.20;;;;;;;;;;5096239;28;20525;-47
2023/05/30 04:08:50;;;;;;;0.20;0.20;;;;;;;;;;5114939;28;20043;-48
2023/05/30 04:11:15;;;;;;;0.20;0.20;;;;;;;;;;5115696;27;20072;-47
2023/05/30 04:13:41;;;;;;;0.20;0.20;;;;;;;;;;5115146;28;20062;-47
2023/05/30 04:16:06;;;;;;;0.20;0.20;;;;;;;;;;5115023;28;20059;-48
2023/05/30 04:18:32;;;;;;;0.20;0.20;;;;;;;;;;5115346;28;20043;-47
2023/05/30 04:20:57;;;;;;;0.20;0.20;;;;;;;;;;5115066;27;20050;-47
2023/05/30 04:23:24;;;;;;;0.20;0.20;;;;;;;;;;5115484;28;20047;-48
2023/05/30 04:25:49;;;;;;;0.20;0.20;;;;;;;;;;5115202;28;20128;-47
2023/05/30 04:28:17;;;;;;;0.20;0.20;;;;;;;;;;5115213;28;20039;-47
2023/05/30 04:30:43;;;;;;;0.10;0.10;;;;;;;;;;5115182;27;20070;-47
2023/05/30 04:33:09;;;;;;;0.22;0.22;;;;;;;;;;5115479;28;20062;-47
2023/05/30 04:35:34;;;;;;;0.20;0.20;;;;;;;;;;5116581;27;20043;-47
2023/05/30 04:38:00;;;;;;;0.20;0.20;;;;;;;;;;5135156;27;20497;-47
2023/05/30 04:40:27;;;;;;;0.20;0.20;;;;;;;;;;5126166;27;20043;-47
2023/05/30 04:42:53;;;;;;;0.20;0.20;;;;;;;;;;5114732;28;20426;-48
2023/05/30 04:45:19;;;;;;;0.20;0.20;;;;;;;;;;5114522;28;20605;-47
2023/05/30 04:47:45;;;;;;;0.20;0.20;;;;;;;;;;5114682;27;20091;-47
2023/05/30 04:50:12;;;;;;;0.20;0.20;;;;;;;;;;5121842;27;20059;-48
2023/05/30 04:52:37;;;;;;;0.20;0.20;;;;;;;;;;5136213;27;20474;-49
2023/05/30 04:55:03;;;;;;;0.20;0.20;;;;;;;;;;5129428;27;20075;-46
2023/05/30 04:57:28;;;;;;;0.20;0.20;;;;;;;;;;5117044;27;20168;-50
2023/05/30 04:59:55;;;;;;;0.20;0.20;;;;;;;;;;5119226;27;20047;-47
2023/05/30 05:02:21;;;;;;;0.20;0.20;;;;;;;;;;5135987;27;20101;-47
2023/05/30 05:04:46;;;;;;;0.20;0.20;;;;;;;;;;5135795;27;20511;-47
2023/05/30 05:07:12;;;;;;;0.20;0.20;;;;;;;;;;5134814;27;20174;-47
2023/05/30 05:09:37;;;;;;;0.20;0.20;;;;;;;;;;5135148;27;20274;-47
2023/05/30 05:12:03;;;;;;;0.20;0.20;;;;;;;;;;5135518;27;20626;-48
2023/05/30 05:14:29;;;;;;;0.20;0.20;;;;;;;;;;5135670;27;20409;-47
2023/05/30 05:16:54;;;;;;;0.13;0.13;;;;;;;;;;5135425;27;20411;-48
2023/05/30 05:19:20;;;;;;;0.20;0.20;;;;;;;;;;5138949;27;20046;-47
2023/05/30 05:21:45;;;;;;;0.10;0.10;;;;;;;;;;5138630;27;20466;-48
2023/05/30 05:24:11;;;;;;;0.20;0.20;;;;;;;;;;5139377;27;20082;-47
2023/05/30 05:26:37;;;;;;;0.20;0.20;;;;;;;;;;5139083;27;20249;-47
2023/05/30 05:29:02;;;;;;;0.20;0.20;;;;;;;;;;5138911;27;20035;-47
2023/05/30 05:31:30;;;;;;;0.20;0.20;;;;;;;;;;5138819;27;20125;-49
2023/05/30 05:33:56;;;;;;;0.10;0.10;;;;;;;;;;5120669;27;20501;-47
2023/05/30 05:36:21;;;;;;;0.20;0.20;;;;;;;;;;5138954;27;20042;-47
2023/05/30 05:38:47;;;;;;;0.20;0.20;;;;;;;;;;5137280;27;20046;-48
2023/05/30 05:41:12;;;;;;;0.20;0.20;;;;;;;;;;5122032;27;20456;-48
2023/05/30 05:43:38;;;;;;;0.20;0.20;;;;;;;;;;5117653;28;20471;-49
2023/05/30 05:46:03;;;;;;;0.20;0.20;;;;;;;;;;5118169;28;20086;-48
2023/05/30 05:48:29;;;;;;;0.20;0.20;;;;;;;;;;5125519;27;20080;-47
2023/05/30 05:50:54;;;;;;;0.17;0.17;;;;;;;;;;5132916;27;20301;-47
2023/05/30 05:53:20;;;;;;;0.20;0.20;;;;;;;;;;5138285;27;20224;-48
2023/05/30 05:55:46;;;;;;;0.20;0.20;;;;;;;;;;5138592;27;20051;-48
2023/05/30 05:58:12;;;;;;;0.20;0.20;;;;;;;;;;5113391;28;20124;-47
2023/05/30 06:00:37;;;;;;;0.20;0.20;;;;;;;;;;5128500;27;20035;-48
2023/05/30 06:03:03;;;;;;;0.20;0.20;;;;;;;;;;5138484;27;20542;-47
2023/05/30 06:05:33;;;;;;;0.20;0.20;;;;;;;;;;5120443;27;20175;-47
2023/05/30 06:07:58;;;;;;;0.20;0.20;;;;;;;;;;5134810;27;20051;-47
2023/05/30 06:10:24;;;;;;;0.20;0.20;;;;;;;;;;5116948;27;20266;-47
2023/05/30 06:12:50;;;;;;;0.20;0.20;;;;;;;;;;5116749;28;20071;-48
2023/05/30 06:15:15;;;;;;;0.20;0.20;;;;;;;;;;5117472;28;20394;-47
2023/05/30 06:17:41;;;;;;;0.20;0.20;;;;;;;;;;5117844;28;20047;-48
2023/05/30 06:20:07;;;;;;;0.20;0.20;;;;;;;;;;5098902;28;20052;-48
2023/05/30 06:22:32;;;;;;;0.20;0.20;;;;;;;;;;5117254;28;20054;-47
2023/05/30 06:24:58;;;;;;;0.20;0.20;;;;;;;;;;5117427;28;20050;-48
2023/05/30 06:27:23;;;;;;;0.20;0.20;;;;;;;;;;5117578;28;20069;-49
2023/05/30 06:29:49;;;;;;;0.20;0.20;;;;;;;;;;5116662;27;20051;-48
2023/05/30 06:32:15;;;;;;;0.20;0.20;;;;;;;;;;5117231;28;20134;-47
2023/05/30 06:34:42;;;;;;;0.20;0.20;;;;;;;;;;5117166;28;20050;-47
2023/05/30 06:37:09;;;;;;;0.20;0.20;;;;;;;;;;5117164;28;20047;-48
2023/05/30 06:39:35;;;;;;;0.20;0.20;;;;;;;;;;5118914;27;20082;-48
2023/05/30 06:42:03;;;;;;;0.20;0.20;;;;;;;;;;5137778;27;20050;-47
2023/05/30 06:44:28;;;;;;;0.20;0.20;;;;;;;;;;5134175;27;20047;-47
2023/05/30 06:46:54;;;;;;;0.20;0.20;;;;;;;;;;5116864;28;20096;-48
2023/05/30 06:49:19;;;;;;;0.20;0.20;;;;;;;;;;5137287;27;20422;-47
2023/05/30 06:51:45;;;;;;;0.20;0.20;;;;;;;;;;5117037;27;20149;-47
2023/05/30 06:54:10;;;;;;;0.10;0.10;;;;;;;;;;5117049;28;20245;-47
2023/05/30 06:56:36;;;;;;;0.20;0.20;;;;;;;;;;5116135;28;20396;-47
2023/05/30 06:59:01;;;;;;;0.20;0.20;;;;;;;;;;5116728;27;20044;-48
2023/05/30 07:01:27;;;;;;;0.20;0.20;;;;;;;;;;5118636;27;20047;-47
2023/05/30 07:03:52;;;;;;;0.20;0.20;;;;;;;;;;5115954;28;21064;-47
2023/05/30 07:06:18;;;;;;;0.20;0.20;;;;;;;;;;5116019;28;20051;-48
2023/05/30 07:08:43;;;;;;;0.20;0.20;;;;;;;;;;5115964;28;20051;-47
2023/05/30 07:11:09;;;;;;;0.10;0.10;;;;;;;;;;5115712;27;20542;-48
2023/05/30 07:13:34;;;;;;;0.20;0.20;;;;;;;;;;5115934;28;20244;-47
2023/05/30 07:16:00;;;;;;;0.20;0.20;;;;;;;;;;5116044;28;20047;-48
2023/05/30 07:18:25;;;;;;;0.20;0.20;;;;;;;;;;5116117;28;20088;-48
2023/05/30 07:20:51;;;;;;;0.20;0.20;;;;;;;;;;5115988;27;20144;-47
2023/05/30 07:23:17;;;;;;;0.20;0.20;;;;;;;;;;5115833;28;20946;-48
2023/05/30 07:25:42;;;;;;;0.20;0.20;;;;;;;;;;5115569;28;20112;-47
2023/05/30 07:28:08;;;;;;;0.20;0.20;;;;;;;;;;5115737;28;20126;-48
2023/05/30 07:30:33;;;;;;;0.20;0.20;;;;;;;;;;5116146;27;20478;-47
2023/05/30 07:32:59;;;;;;;0.20;0.20;;;;;;;;;;5115572;28;20058;-48
2023/05/30 07:35:24;;;;;;;0.20;0.20;;;;;;;;;;5115548;28;20051;-48
2023/05/30 07:37:52;;;;;;;0.20;0.20;;;;;;;;;;5115560;28;20444;-48
2023/05/30 07:40:18;;;;;;;0.20;0.20;;;;;;;;;;5114797;27;20062;-48
2023/05/30 07:42:44;;;;;;;0.20;0.20;;;;;;;;;;5115579;27;20525;-48
2023/05/30 07:45:10;;;;;;;0.20;0.20;;;;;;;;;;5093587;28;20067;-48
2023/05/30 07:47:35;;;;;;;0.20;0.20;;;;;;;;;;5100085;27;20058;-47
2023/05/30 07:50:01;;;;;;;0.20;0.20;;;;;;;;;;5115766;27;20051;-48
2023/05/30 07:52:26;;;;;;;0.20;0.20;;;;;;;;;;5115754;28;20054;-47
2023/05/30 07:54:52;;;;;;;0.20;0.20;;;;;;;;;;5115538;28;20602;-47
2023/05/30 07:57:18;;;;;;;0.20;0.20;;;;;;;;;;5115327;28;20050;-48
2023/05/30 07:59:43;;;;;;;0.20;0.20;;;;;;;;;;5115678;27;20051;-48
2023/05/30 08:02:09;;;;;;;0.20;0.20;;;;;;;;;;5122163;27;20058;-48
2023/05/30 08:04:34;;;;;;;0.20;0.20;;;;;;;;;;5097166;28;20035;-47
2023/05/30 08:07:02;;;;;;;0.20;0.20;;;;;;;;;;5115207;28;20502;-48
2023/05/30 08:09:28;;;;;;;0.20;0.20;;;;;;;;;;5116234;27;20264;-48
2023/05/30 08:11:54;;;;;;;0.20;0.20;;;;;;;;;;5136669;27;20046;-47
2023/05/30 08:14:20;;;;;;;0.20;0.20;;;;;;;;;;5128581;27;20042;-47
2023/05/30 08:16:45;;;;;;;0.20;0.20;;;;;;;;;;5128103;27;20051;-48
2023/05/30 08:19:11;;;;;;;0.20;0.20;;;;;;;;;;5128961;27;20511;-50
2023/05/30 08:21:36;;;;;;;0.20;0.20;;;;;;;;;;5120779;27;20141;-47
2023/05/30 08:24:02;;;;;;;0.20;0.20;;;;;;;;;;5135716;27;20054;-47
2023/05/30 08:26:31;;;;;;;0.20;0.20;;;;;;;;;;5136089;27;20054;-46
2023/05/30 08:28:57;;;;;;;0.20;0.20;;;;;;;;;;5136250;27;20259;-47
2023/05/30 08:31:23;;;;;;;0.20;0.20;;;;;;;;;;5118908;27;20316;-48
2023/05/30 08:33:49;;;;;;;0.20;0.20;;;;;;;;;;5115826;28;20502;-48
2023/05/30 08:36:15;;;;;;;0.20;0.20;;;;;;;;;;5115474;28;20043;-47
2023/05/30 08:38:41;;;;;;;0.10;0.10;;;;;;;;;;5114977;28;20066;-47
2023/05/30 08:41:06;;;;;;;0.20;0.20;;;;;;;;;;5115335;27;20491;-47
2023/05/30 08:43:32;;;;;;;0.20;0.20;;;;;;;;;;5097157;28;20047;-48
2023/05/30 08:45:57;;;;;;;0.20;0.20;;;;;;;;;;5114641;27;20039;-47
2023/05/30 08:48:23;;;;;;;0.20;0.20;;;;;;;;;;5127250;27;20617;-49
2023/05/30 08:50:51;;;;;;;0.20;0.20;;;;;;;;;;5104820;28;20047;-48
2023/05/30 08:53:20;;;;;;;0.20;0.20;;;;;;;;;;5119264;27;20043;-49
2023/05/30 08:55:51;;;;;;;0.20;0.20;;;;;;;;;;5118845;28;20108;-47
2023/05/30 08:58:22;;;;;;;0.20;0.20;;;;;;;;;;5117817;28;20334;-47
2023/05/30 09:00:48;;;;;;;0.20;0.20;;;;;;;;;;5118287;27;20524;-48
2023/05/30 09:03:15;;;;;;;0.20;0.20;;;;;;;;;;5109058;27;20412;-46
2023/05/30 09:05:42;;;;;;;0.20;0.20;;;;;;;;;;5139075;27;20466;-49
2023/05/30 09:08:08;;;;;;;0.20;0.20;;;;;;;;;;5138840;27;20066;-46
2023/05/30 09:10:35;;;;;;;0.20;0.20;;;;;;;;;;5128682;27;20496;-47
2023/05/30 09:13:00;;;;;;;0.20;0.20;;;;;;;;;;5118395;28;20082;-46
2023/05/30 09:15:26;;;;;;;0.20;0.20;;;;;;;;;;5118745;28;20075;-46
2023/05/30 09:17:51;;;;;;;0.20;0.20;;;;;;;;;;5118458;28;20075;-48
2023/05/30 09:20:17;;;;;;;0.20;0.20;;;;;;;;;;5118172;27;20387;-47
2023/05/30 09:22:45;;;;;;;0.20;0.20;;;;;;;;;;5118168;27;20422;-49
2023/05/30 09:25:15;;;;;;;0.20;0.20;;;;;;;;;;5125833;27;20050;-48
2023/05/30 09:27:45;;;;;;;0.20;0.20;;;;;;;;;;5136548;27;20069;-50
2023/05/30 09:30:11;;;;;;;0.20;0.20;;;;;;;;;;5123738;27;20046;-47
2023/05/30 09:32:38;;;;;;;0.20;0.20;;;;;;;;;;5138731;27;20520;-47
2023/05/30 09:35:07;;;;;;;0.20;0.20;;;;;;;;;;5138625;27;20574;-50
2023/05/30 09:37:37;;;;;;;0.20;0.20;;;;;;;;;;5138532;27;20994;-50
2023/05/30 09:40:06;;;;;;;0.20;0.20;;;;;;;;;;5114110;28;20047;-47
2023/05/30 09:42:39;;;;;;;0.20;0.20;;;;;;;;;;5117626;28;20051;-46
2023/05/30 09:45:06;;;;;;;0.20;0.20;;;;;;;;;;5108895;27;20049;-47
2023/05/30 09:47:37;;;;;;;0.20;0.20;;;;;;;;;;5133673;27;20043;-47
2023/05/30 09:50:03;;;;;;;0.17;0.17;;;;;;;;;;5117042;27;20050;-50
2023/05/30 09:52:29;;;;;;;0.20;0.20;;;;;;;;;;5117421;28;20070;-47
2023/05/30 09:54:55;;;;;;;0.20;0.20;;;;;;;;;;5117771;28;20043;-49
2023/05/30 09:57:20;;;;;;;0.20;0.20;;;;;;;;;;5117296;28;20054;-49
2023/05/30 09:59:48;;;;;;;0.20;0.20;;;;;;;;;;5117089;27;20054;-47
2023/05/30 10:02:20;;;;;;;0.20;0.20;;;;;;;;;;5117523;28;20120;-46
2023/05/30 10:04:47;;;;;;;0.20;0.20;;;;;;;;;;5121240;27;20096;-50
2023/05/30 10:07:14;;;;;;;0.20;0.20;;;;;;;;;;5116948;27;20632;-49
2023/05/30 10:09:40;;;;;;;0.20;0.20;;;;;;;;;;5119325;27;20123;-47
2023/05/30 10:12:06;;;;;;;0.20;0.20;;;;;;;;;;5137296;27;20448;-47
2023/05/30 10:14:31;;;;;;;0.20;0.20;;;;;;;;;;5137488;27;20447;-47
2023/05/30 10:17:00;;;;;;;0.20;0.20;;;;;;;;;;5138136;27;20129;-47
2023/05/30 10:19:35;;;;;;;0.20;0.20;;;;;;;;;;5137488;27;20053;-46
2023/05/30 10:22:03;;;;;;;0.20;0.20;;;;;;;;;;5113769;28;20042;-47
2023/05/30 10:24:28;;;;;;;0.20;0.20;;;;;;;;;;5116847;28;20054;-48
2023/05/30 10:26:55;;;;;;;0.20;0.20;;;;;;;;;;5116864;28;20130;-48
2023/05/30 10:29:23;;;;;;;0.20;0.20;;;;;;;;;;5116705;28;20055;-46
2023/05/30 10:31:51;;;;;;;0.20;0.20;;;;;;;;;;5137304;27;20174;-50
2023/05/30 10:34:17;;;;;;;0.20;0.20;;;;;;;;;;5118873;27;20050;-48
2023/05/30 10:36:44;;;;;;;0.20;0.20;;;;;;;;;;5137346;27;20047;-47
2023/05/30 10:39:20;;;;;;;0.20;0.20;;;;;;;;;;5137463;27;20118;-46
2023/05/30 10:42:06;;;;;;;0.20;0.20;;;;;;;;;;5137214;27;20082;-48
2023/05/30 10:47:19;;;;;;;0.20;0.20;;;;;;;;;;5177690;27;20817;-49
2023/05/30 10:49:45;;;;;;;;;;;;;;;;;;5157435;27;20054;-48
2023/05/30 10:52:11;;;;;;;0.20;0.20;;;;;;;;;;5174804;27;20034;-48
2023/05/30 10:54:37;;;;;;;0.20;0.20;;;;;;;;;;5174791;27;20090;-47
2023/05/30 10:57:24;;;;;;;0.20;0.20;;;;;;;;;;5174798;27;20050;-47
2023/05/30 10:59:52;;;;;;;0.20;0.20;;;;;;;;;;5159014;27;20083;-47
2023/05/30 11:02:30;;;;;;;0.20;0.20;;;;;;;;;;5155843;27;20042;-46
2023/05/30 11:05:02;;;;;;;0.10;0.10;;;;;;;;;;5155823;27;20038;-46
2023/05/30 11:07:28;;;;;;;0.20;0.20;;;;;;;;;;5158104;27;20504;-47
2023/05/30 11:10:02;;;;;;;0.10;0.10;;;;;;;;;;5157820;27;20046;-46
2023/05/30 11:12:28;;;;;;;0.20;0.20;;;;;;;;;;5154624;27;20037;-47
2023/05/30 11:14:55;;;;;;;0.20;0.20;;;;;;;;;;5173949;27;20069;-48
2023/05/30 11:17:27;;;;;;;0.20;0.20;;;;;;;;;;5155519;27;20106;-47
2023/05/30 11:20:04;;;;;;;0.20;0.20;;;;;;;;;;5169755;27;20502;-46
2023/05/30 11:22:29;;;;;;;0.20;0.20;;;;;;;;;;5150030;27;20093;-48
2023/05/30 11:25:15;;;;;;;0.20;0.20;;;;;;;;;;5132099;27;20046;-46
2023/05/30 11:27:59;;;;;;;0.20;0.20;;;;;;;;;;5116955;27;20575;-48
2023/05/30 11:30:24;;;;;;;0.20;0.20;;;;;;;;;;5122393;27;20109;-48
2023/05/30 11:32:50;;;;;;;0.20;0.20;;;;;;;;;;5153050;27;20558;-47
2023/05/30 11:35:17;;;;;;;0.20;0.20;;;;;;;;;;5152806;27;20406;-49
2023/05/30 11:37:42;;;;;;;0.20;0.20;;;;;;;;;;5152538;27;20096;-47
2023/05/30 11:40:12;;;;;;;0.20;0.20;;;;;;;;;;5153273;27;20042;-48
2023/05/30 11:42:37;;;;;;;0.15;0.15;;;;;;;;;;5152778;27;20053;-47
2023/05/30 11:45:03;;;;;;;0.20;0.20;;;;;;;;;;5151871;27;20133;-51
2023/05/30 11:47:29;;;;;;;0.20;0.20;;;;;;;;;;5150583;27;20046;-48
2023/05/30 11:49:58;;;;;;;0.20;0.20;;;;;;;;;;5135618;27;20495;-47
2023/05/30 11:52:23;;;;;;;0.20;0.20;;;;;;;;;;5152939;27;20130;-46
2023/05/30 11:54:49;;;;;;;0.20;0.20;;;;;;;;;;5152545;27;20573;-50
2023/05/30 11:57:17;;;;;;;0.20;0.20;;;;;;;;;;5145370;27;20474;-47
2023/05/30 11:59:44;;;;;;;0.10;0.10;;;;;;;;;;5138420;27;20085;-47
2023/05/30 12:02:09;;;;;;;0.20;0.20;;;;;;;;;;5138899;27;20053;-47
2023/05/30 12:04:37;;;;;;;0.20;0.20;;;;;;;;;;5136003;27;20047;-47
2023/05/30 12:07:04;;;;;;;0.10;0.10;;;;;;;;;;5106796;28;20154;-47
2023/05/30 12:09:39;;;;;;;0.20;0.20;;;;;;;;;;5117424;27;20123;-47
2023/05/30 12:12:05;;;;;;;0.20;0.20;;;;;;;;;;5118087;27;20070;-46
2023/05/30 12:14:39;;;;;;;0.20;0.20;;;;;;;;;;5116060;28;20043;-47
2023/05/30 12:17:10;;;;;;;0.20;0.20;;;;;;;;;;5117204;28;20098;-48
2023/05/30 12:19:35;;;;;;;0.20;0.20;;;;;;;;;;5098527;27;20050;-46
2023/05/30 12:22:03;;;;;;;0.20;0.20;;;;;;;;;;5129554;27;20061;-47
2023/05/30 12:24:29;;;;;;;0.20;0.20;;;;;;;;;;5130600;27;20669;-47
2023/05/30 12:26:56;;;;;;;0.20;0.20;;;;;;;;;;5116278;28;20097;-47
2023/05/30 12:29:23;;;;;;;0.20;0.20;;;;;;;;;;5117282;28;20047;-47
2023/05/30 12:31:49;;;;;;;0.20;0.20;;;;;;;;;;5119606;27;20067;-50
2023/05/30 12:34:14;;;;;;;0.20;0.20;;;;;;;;;;5138095;27;20047;-48
2023/05/30 12:36:40;;;;;;;0.30;0.30;;;;;;;;;;5137820;27;20478;-49
2023/05/30 12:39:07;;;;;;;0.20;0.20;;;;;;;;;;5138312;27;20301;-47
2023/05/30 12:41:36;;;;;;;0.20;0.20;;;;;;;;;;5119982;27;20292;-47
2023/05/30 12:44:02;;;;;;;0.20;0.20;;;;;;;;;;5138385;27;20107;-48
2023/05/30 12:46:28;;;;;;;0.20;0.20;;;;;;;;;;5137937;27;20559;-48
2023/05/30 12:48:54;;;;;;;0.20;0.20;;;;;;;;;;5137819;27;20102;-48
2023/05/30 12:51:20;;;;;;;0.20;0.20;;;;;;;;;;5120374;27;20043;-48
2023/05/30 12:53:45;;;;;;;0.20;0.20;;;;;;;;;;5118025;28;20138;-47
2023/05/30 12:56:13;;;;;;;0.20;0.20;;;;;;;;;;5117067;28;20047;-46
2023/05/30 12:58:39;;;;;;;;;;;;;;;;;;5117391;28;20552;-48
2023/05/30 13:01:04;;;;;;;0.20;0.20;;;;;;;;;;5131559;27;19950;-47
2023/05/30 13:03:30;;;;;;;0.10;0.10;;;;;;;;;;5138807;27;20099;-47
2023/05/30 13:05:56;;;;;;;0.20;0.20;;;;;;;;;;5138183;27;20091;-46
2023/05/30 13:08:21;;;;;;;0.20;0.20;;;;;;;;;;5136945;27;20050;-46
2023/05/30 13:10:47;;;;;;;0.20;0.20;;;;;;;;;;5137241;27;20425;-46
2023/05/30 13:13:12;;;;;;;0.20;0.20;;;;;;;;;;5138525;27;20042;-47
2023/05/30 13:15:38;;;;;;;0.20;0.20;;;;;;;;;;5138263;27;20053;-46
2023/05/30 13:18:03;;;;;;;0.20;0.20;;;;;;;;;;5137628;27;20410;-46
2023/05/30 13:20:29;;;;;;;0.20;0.20;;;;;;;;;;5115548;27;20126;-48
2023/05/30 13:22:55;;;;;;;0.20;0.20;;;;;;;;;;5097657;28;20066;-46
2023/05/30 13:25:20;;;;;;;0.20;0.20;;;;;;;;;;5116635;28;20131;-46
2023/05/30 13:27:47;;;;;;;0.20;0.20;;;;;;;;;;5116119;28;20047;-48
2023/05/30 13:30:13;;;;;;;0.20;0.20;;;;;;;;;;5123346;27;20454;-47
2023/05/30 13:32:38;;;;;;;0.20;0.20;;;;;;;;;;5137382;27;20067;-46
2023/05/30 13:35:04;;;;;;;0.20;0.20;;;;;;;;;;5137710;27;20047;-48
2023/05/30 13:37:30;;;;;;;0.20;0.20;;;;;;;;;;5136720;27;20504;-48
2023/05/30 13:39:55;;;;;;;0.20;0.20;;;;;;;;;;5136735;27;20138;-48
2023/05/30 13:42:21;;;;;;;0.20;0.20;;;;;;;;;;5136717;27;20050;-48
2023/05/30 13:44:46;;;;;;;0.20;0.20;;;;;;;;;;5137107;27;20047;-49
2023/05/30 13:47:12;;;;;;;0.10;0.10;;;;;;;;;;5137225;27;20069;-49
2023/05/30 13:49:38;;;;;;;0.20;0.20;;;;;;;;;;5136433;27;20042;-49
2023/05/30 13:52:05;;;;;;;0.20;0.20;;;;;;;;;;5126039;27;20129;-48
2023/05/30 13:54:30;;;;;;;0.20;0.20;;;;;;;;;;5098734;28;20047;-47
2023/05/30 13:56:57;;;;;;;0.20;0.20;;;;;;;;;;5116671;28;20106;-46
2023/05/30 13:59:23;;;;;;;0.20;0.20;;;;;;;;;;5115660;27;20262;-46
2023/05/30 14:01:52;;;;;;;0.20;0.20;;;;;;;;;;5137244;27;20051;-49
2023/05/30 14:04:18;;;;;;;0.10;0.10;;;;;;;;;;5137840;27;20481;-47
2023/05/30 14:06:46;;;;;;;0.20;0.20;;;;;;;;;;5137658;27;20184;-48
2023/05/30 14:09:12;;;;;;;0.20;0.20;;;;;;;;;;5136826;27;20810;-47
2023/05/30 14:11:37;;;;;;;0.20;0.20;;;;;;;;;;5136539;27;20327;-48
2023/05/30 14:14:05;;;;;;;0.20;0.20;;;;;;;;;;5137018;27;20046;-48
2023/05/30 14:16:31;;;;;;;0.20;0.20;;;;;;;;;;5137906;27;20267;-46
2023/05/30 14:18:56;;;;;;;0.10;0.10;;;;;;;;;;5131367;27;20134;-47
2023/05/30 14:21:22;;;;;;;0.20;0.20;;;;;;;;;;5129340;27;20081;-51
2023/05/30 14:23:48;;;;;;;0.20;0.20;;;;;;;;;;5137221;27;20043;-49
2023/05/30 14:26:13;;;;;;;0.20;0.20;;;;;;;;;;5101928;27;20417;-46
2023/05/30 14:28:40;;;;;;;0.20;0.20;;;;;;;;;;5124590;27;20551;-47
2023/05/30 14:31:06;;;;;;;0.20;0.20;;;;;;;;;;5130725;27;20047;-48
2023/05/30 14:33:31;;;;;;;0.20;0.20;;;;;;;;;;5136487;27;20070;-47
2023/05/30 14:35:57;;;;;;;0.20;0.20;;;;;;;;;;5137202;27;20058;-48
2023/05/30 14:38:22;;;;;;;0.20;0.20;;;;;;;;;;5136870;27;20053;-47
2023/05/30 14:40:48;;;;;;;0.20;0.20;;;;;;;;;;5136518;27;20050;-46
2023/05/30 14:43:13;;;;;;;0.15;0.15;;;;;;;;;;5136819;27;20095;-47